Newfield, Pennsylvania
Current Conditions -  °F | °C
As of 8:35 AM on Tuesday 21 Oct 2014 (Local Time) from KN38 Reporting Station
Drizzle Drizzle  
Wind Chill: 42°   Ceiling: 400
Heat Index: 45°   Visibility: 2.5mi
Dew Point: 45°   Wind: 5mph
Humidity: 100%   Direction: 200°SSW
Pressure: 29.85"   Gusts: NA
Location:  41.8283°N, 77.7331°W
Report Text: KN38 211235Z AUTO 20004KT 2 1/2SM -DZ BKN004 OVC010 07/07 A2985 RMK AO2
Loading
Personal Weather Stations






























Interactive Weather Map
Tropical Storm Tracking
New forecast layout! Learn more

10-Day Weather Forecast

Advertisements
Track Severe Weather on mobile